Time;durP1;ratioP1;P1;durP2;ratioP2;P2;SDS_P1;SDS_P2;PMS_P1;PMS_P2;Temp;Humidity;BMP_temperature;BMP_pressure;BME280_temperature;BME280_humidity;BME280_pressure;Samples;Min_cycle;Max_cycle;Signal;HPM_P1;HPM_P2
2023/06/28 00:00:51;;;;;;;2.00;0.70;;;22.20;38.10;;;;;;2257932;55;21004;-70
2023/06/28 00:03:17;;;;;;;1.77;0.62;;;22.20;38.10;;;;;;2532616;54;21678;-71
2023/06/28 00:05:44;;;;;;;1.75;0.70;;;22.20;38.10;;;;;;2523141;54;20973;-69
2023/06/28 00:08:12;;;;;;;1.92;0.70;;;22.10;38.10;;;;;;2282440;55;21002;-68
2023/06/28 00:10:39;;;;;;;2.10;0.80;;;22.10;38.20;;;;;;2514364;55;21763;-68
2023/06/28 00:13:05;;;;;;;1.48;0.55;;;22.10;38.20;;;;;;2285524;55;20961;-69
2023/06/28 00:15:33;;;;;;;2.35;0.90;;;22.10;38.20;;;;;;2280771;55;21694;-71
2023/06/28 00:18:02;;;;;;;2.72;0.80;;;22.10;38.30;;;;;;2515498;55;20942;-71
2023/06/28 00:20:32;;;;;;;2.08;0.90;;;22.10;38.40;;;;;;2515648;55;20942;-70
2023/06/28 00:22:59;;;;;;;2.22;0.82;;;22.00;38.40;;;;;;2281916;55;21018;-69
2023/06/28 00:25:25;;;;;;;1.58;0.62;;;22.10;38.50;;;;;;2282141;55;20942;-70
2023/06/28 00:27:53;;;;;;;2.67;0.70;;;22.00;38.40;;;;;;2512752;55;20989;-69
2023/06/28 00:30:20;;;;;;;2.08;0.80;;;22.00;38.40;;;;;;2506474;55;21002;-70
2023/06/28 00:32:46;;;;;;;1.85;0.70;;;22.00;38.40;;;;;;2538485;54;21862;-70
2023/06/28 00:35:14;;;;;;;2.28;0.68;;;22.00;38.50;;;;;;2530351;54;20924;-70
2023/06/28 00:37:41;;;;;;;3.37;0.90;;;21.90;38.50;;;;;;2258133;56;21049;-70
2023/06/28 00:40:09;;;;;;;2.15;0.70;;;21.90;39.20;;;;;;2283630;55;20974;-69
2023/06/28 00:42:36;;;;;;;3.55;0.60;;;21.90;38.70;;;;;;2281625;55;20969;-69
2023/06/28 00:45:06;;;;;;;2.17;0.80;;;21.90;38.70;;;;;;2513620;55;20966;-70
2023/06/28 00:47:32;;;;;;;1.73;0.80;;;21.90;38.80;;;;;;2514483;55;21014;-72
2023/06/28 00:50:04;;;;;;;2.45;0.80;;;21.80;38.70;;;;;;2514602;55;20922;-70
2023/06/28 00:52:55;;;;;;;1.85;0.68;;;21.80;38.90;;;;;;2515629;55;21511;-72
2023/06/28 00:55:25;;;;;;;1.83;0.60;;;21.80;39.00;;;;;;2271327;55;22078;-69
2023/06/28 00:57:52;;;;;;;3.15;0.93;;;21.80;39.00;;;;;;2513434;55;20946;-69
2023/06/28 01:00:18;;;;;;;2.33;0.75;;;21.80;39.00;;;;;;2506013;55;20950;-70
2023/06/28 01:02:44;;;;;;;1.52;0.60;;;21.80;39.00;;;;;;2514447;55;20922;-69
2023/06/28 01:05:13;;;;;;;2.90;1.05;;;21.80;39.10;;;;;;2515484;55;20931;-71
2023/06/28 01:07:42;;;;;;;1.80;0.62;;;21.70;39.20;;;;;;2515236;55;21578;-70
2023/06/28 01:10:08;;;;;;;2.12;0.82;;;21.70;39.20;;;;;;2510687;54;20978;-69
2023/06/28 01:12:37;;;;;;;1.87;0.73;;;21.70;39.30;;;;;;2266291;56;21050;-69
2023/06/28 01:15:04;;;;;;;1.50;0.60;;;21.70;39.40;;;;;;2505214;55;21844;-69
2023/06/28 01:17:31;;;;;;;1.70;0.70;;;21.70;39.40;;;;;;2514861;55;21750;-69
2023/06/28 01:19:57;;;;;;;1.65;0.57;;;21.70;39.40;;;;;;2281675;55;21058;-69
2023/06/28 01:22:26;;;;;;;4.12;1.02;;;21.70;39.40;;;;;;2514514;55;20931;-70
2023/06/28 01:24:56;;;;;;;2.87;0.77;;;21.70;39.50;;;;;;2282068;55;20974;-69
2023/06/28 01:27:22;;;;;;;1.52;0.62;;;21.70;39.50;;;;;;2281013;55;21006;-70
2023/06/28 01:29:56;;;;;;;3.00;0.80;;;21.70;39.50;;;;;;2281033;55;20994;-69
2023/06/28 01:32:23;;;;;;;3.53;0.90;;;21.70;39.50;;;;;;2282107;55;20954;-70
2023/06/28 01:34:49;;;;;;;2.03;0.68;;;21.80;39.60;;;;;;2515133;55;21029;-71
2023/06/28 01:37:17;;;;;;;2.33;0.70;;;21.80;39.60;;;;;;2509137;54;20958;-69
2023/06/28 01:39:43;;;;;;;4.30;1.42;;;21.70;39.60;;;;;;2511038;55;21812;-70
2023/06/28 01:42:09;;;;;;;2.35;0.75;;;21.80;39.70;;;;;;2515646;55;20946;-68
2023/06/28 01:44:36;;;;;;;1.75;0.60;;;21.80;39.90;;;;;;2515683;54;21779;-72
2023/06/28 01:47:13;;;;;;;3.83;0.73;;;21.80;39.90;;;;;;2296415;55;20956;-69
2023/06/28 01:49:39;;;;;;;2.17;0.80;;;21.80;39.90;;;;;;2544911;54;21068;-72
2023/06/28 01:52:23;;;;;;;1.77;0.60;;;21.80;39.90;;;;;;2516987;55;21055;-69
2023/06/28 01:54:50;;;;;;;2.35;0.90;;;21.90;40.20;;;;;;2281717;55;20997;-70
2023/06/28 01:57:17;;;;;;;2.72;0.80;;;21.80;39.90;;;;;;2295397;55;21065;-70
2023/06/28 01:59:43;;;;;;;1.77;0.80;;;21.80;40.10;;;;;;2256137;56;21157;-70
2023/06/28 02:02:09;;;;;;;2.30;0.80;;;21.80;40.20;;;;;;2514999;55;20986;-71
2023/06/28 02:04:42;;;;;;;3.90;0.65;;;21.80;40.20;;;;;;2495533;55;20994;-71
2023/06/28 02:07:10;;;;;;;1.80;0.75;;;21.80;40.30;;;;;;2270057;55;21024;-69
2023/06/28 02:09:40;;;;;;;2.90;0.68;;;21.80;40.20;;;;;;2519504;54;20990;-69
2023/06/28 02:12:06;;;;;;;2.03;0.77;;;21.80;40.30;;;;;;2516555;54;21468;-69
2023/06/28 02:14:33;;;;;;;1.98;0.70;;;21.80;40.30;;;;;;2291504;55;20938;-70
2023/06/28 02:17:00;;;;;;;2.45;0.85;;;21.90;40.50;;;;;;2516141;55;20921;-69
2023/06/28 02:19:35;;;;;;;3.60;0.82;;;21.90;40.60;;;;;;2298918;55;20983;-72
2023/06/28 02:22:01;;;;;;;3.92;0.70;;;21.90;40.60;;;;;;2535941;54;20983;-69
2023/06/28 02:24:28;;;;;;;1.83;0.60;;;21.90;40.50;;;;;;2256915;55;21030;-70
2023/06/28 02:26:54;;;;;;;2.50;0.70;;;21.90;40.50;;;;;;2306799;56;20932;-70
2023/06/28 02:29:24;;;;;;;1.90;0.70;;;21.90;40.60;;;;;;2483994;55;21070;-66
2023/06/28 02:31:50;;;;;;;1.83;0.68;;;21.90;40.60;;;;;;2534761;54;20932;-70
2023/06/28 02:34:21;;;;;;;2.20;0.90;;;21.90;40.60;;;;;;2519443;54;21061;-72
2023/06/28 02:36:56;;;;;;;2.17;0.77;;;21.90;40.60;;;;;;2530743;54;20908;-69
2023/06/28 02:39:24;;;;;;;2.20;0.82;;;21.90;40.90;;;;;;2482959;55;21179;-70
2023/06/28 02:41:52;;;;;;;2.58;0.82;;;21.90;40.80;;;;;;2513420;55;20986;-69
2023/06/28 02:44:18;;;;;;;2.95;0.82;;;21.90;40.90;;;;;;2515669;55;21834;-70
2023/06/28 02:46:44;;;;;;;2.60;0.65;;;21.90;40.90;;;;;;2515113;55;21889;-70
2023/06/28 02:49:11;;;;;;;1.55;0.55;;;21.90;40.90;;;;;;2516469;55;21764;-70
2023/06/28 02:51:37;;;;;;;1.60;0.60;;;21.90;40.90;;;;;;2514685;55;20971;-69
2023/06/28 02:54:04;;;;;;;2.60;0.80;;;21.90;40.90;;;;;;2514611;55;21056;-69
2023/06/28 02:56:30;;;;;;;3.53;0.75;;;21.90;40.90;;;;;;2284689;56;21502;-68
2023/06/28 02:58:58;;;;;;;3.00;0.80;;;21.90;40.90;;;;;;2514853;55;21023;-69
2023/06/28 03:01:25;;;;;;;2.03;0.70;;;21.90;41.00;;;;;;2515894;55;20958;-69
2023/06/28 03:04:14;;;;;;;3.08;0.80;;;22.00;41.10;;;;;;2515321;55;21049;-69
2023/06/28 03:06:52;;;;;;;1.70;0.52;;;22.00;41.40;;;;;;2279953;55;21416;-70
2023/06/28 03:09:20;;;;;;;1.87;0.70;;;22.00;41.30;;;;;;2513128;55;20973;-70
2023/06/28 03:11:46;;;;;;;2.62;0.70;;;22.00;41.20;;;;;;2515100;55;21022;-70
2023/06/28 03:14:16;;;;;;;2.37;0.70;;;22.00;41.20;;;;;;2515897;55;20927;-68
2023/06/28 03:16:43;;;;;;;1.65;0.70;;;22.00;41.20;;;;;;2515848;55;21721;-70
2023/06/28 03:19:11;;;;;;;2.62;0.80;;;22.00;41.20;;;;;;2516083;55;21435;-70
2023/06/28 03:21:38;;;;;;;2.97;0.90;;;22.00;41.20;;;;;;2280061;55;21011;-71
2023/06/28 03:24:04;;;;;;;1.85;0.62;;;22.00;41.30;;;;;;2516317;55;20926;-69
2023/06/28 03:26:31;;;;;;;1.70;0.70;;;22.00;41.30;;;;;;2282347;55;21019;-71
2023/06/28 03:28:58;;;;;;;1.50;0.62;;;22.00;41.50;;;;;;2514701;55;21013;-70
2023/06/28 03:34:56;;;;;;;2.50;0.73;;;22.00;41.90;;;;;;2514563;55;21045;-70
2023/06/28 03:40:49;;;;;;;1.73;0.70;;;22.00;41.90;;;;;;2531377;54;20959;-70
2023/06/28 03:43:28;;;;;;;2.58;0.93;;;22.00;41.60;;;;;;2523292;54;21021;-69
2023/06/28 03:45:54;;;;;;;1.55;0.60;;;22.00;41.90;;;;;;2514355;55;21419;-71
2023/06/28 03:48:21;;;;;;;2.70;0.80;;;22.00;41.70;;;;;;2514474;55;21748;-71
2023/06/28 03:50:48;;;;;;;3.22;1.02;;;22.00;42.10;;;;;;2505240;55;21822;-72
2023/06/28 03:53:14;;;;;;;2.47;0.90;;;22.00;42.30;;;;;;2476316;55;20933;-72
2023/06/28 03:55:41;;;;;;;2.50;0.88;;;22.00;42.30;;;;;;2265290;56;20946;-69
2023/06/28 03:58:08;;;;;;;1.50;0.60;;;22.00;42.20;;;;;;2514980;55;20954;-69
2023/06/28 04:00:35;;;;;;;2.08;0.75;;;22.00;42.20;;;;;;2282046;56;20989;-71
2023/06/28 04:03:42;;;;;;;2.80;0.80;;;22.00;42.10;;;;;;2515994;55;20923;-71
2023/06/28 04:06:09;;;;;;;1.77;0.60;;;22.00;42.30;;;;;;2526479;54;20964;-68
2023/06/28 04:08:35;;;;;;;2.08;0.77;;;22.00;42.10;;;;;;2308542;55;20995;-69
2023/06/28 04:11:35;;;;;;;2.22;0.75;;;22.00;42.20;;;;;;2282196;56;21038;-72
2023/06/28 04:14:02;;;;;;;1.40;0.60;;;22.00;42.70;;;;;;2511676;55;21042;-70
2023/06/28 04:16:28;;;;;;;2.20;0.70;;;21.90;42.30;;;;;;2502567;54;21034;-71
2023/06/28 04:18:59;;;;;;;1.70;0.70;;;22.00;42.50;;;;;;2256794;56;20981;-69
2023/06/28 04:21:26;;;;;;;1.73;0.70;;;22.00;42.60;;;;;;2505341;55;21022;-69
2023/06/28 04:23:53;;;;;;;2.42;0.60;;;21.90;42.60;;;;;;2475254;55;21062;-70
2023/06/28 04:26:19;;;;;;;1.80;0.70;;;21.90;42.60;;;;;;2295301;55;20924;-69
2023/06/28 04:28:46;;;;;;;3.10;1.12;;;22.00;42.80;;;;;;2532595;54;20923;-70
2023/06/28 04:31:14;;;;;;;2.28;0.80;;;22.00;42.90;;;;;;2516420;55;21966;-69
2023/06/28 04:33:40;;;;;;;4.80;2.20;;;21.90;43.00;;;;;;2514567;55;21051;-68
2023/06/28 04:36:07;;;;;;;3.95;1.67;;;21.90;43.00;;;;;;2515959;54;20956;-69
2023/06/28 04:38:35;;;;;;;2.78;1.10;;;21.90;43.20;;;;;;2514993;55;21383;-69
2023/06/28 04:41:04;;;;;;;3.45;1.20;;;22.00;43.40;;;;;;2282681;55;20988;-68
2023/06/28 04:43:39;;;;;;;2.67;0.80;;;22.00;43.50;;;;;;2515773;55;21003;-70
2023/06/28 04:46:11;;;;;;;2.17;0.88;;;22.00;43.40;;;;;;2540440;54;20992;-72
2023/06/28 04:48:41;;;;;;;1.87;0.70;;;22.00;43.30;;;;;;2484779;54;21055;-69
2023/06/28 04:51:10;;;;;;;1.65;0.50;;;22.00;43.40;;;;;;2508817;55;20962;-70
2023/06/28 04:57:17;;;;;;;1.70;0.70;;;22.00;43.60;;;;;;2515623;55;21019;-70
2023/06/28 04:59:46;;;;;;;1.50;0.50;;;22.00;43.30;;;;;;2527334;54;21114;-72
2023/06/28 05:02:14;;;;;;;2.37;0.65;;;22.00;43.30;;;;;;2515433;55;20984;-70
2023/06/28 05:04:41;;;;;;;2.15;0.68;;;22.00;43.40;;;;;;2281633;55;21762;-70
2023/06/28 05:07:09;;;;;;;1.60;0.70;;;22.00;43.40;;;;;;2282765;55;21465;-72
2023/06/28 05:09:36;;;;;;;2.58;0.80;;;22.00;43.60;;;;;;2539823;54;21094;-72
2023/06/28 05:12:06;;;;;;;1.85;0.75;;;22.00;43.60;;;;;;2547645;54;20979;-72
2023/06/28 05:14:34;;;;;;;1.65;0.70;;;22.00;43.80;;;;;;2287682;55;21029;-71
2023/06/28 05:17:01;;;;;;;1.70;0.62;;;22.00;43.70;;;;;;2282099;56;21009;-71
2023/06/28 05:19:30;;;;;;;2.22;0.82;;;22.00;43.80;;;;;;2286955;55;20947;-73
2023/06/28 05:21:57;;;;;;;2.15;0.73;;;22.00;43.90;;;;;;2485330;55;20952;-70
2023/06/28 05:24:24;;;;;;;2.35;0.75;;;22.00;43.90;;;;;;2513798;55;21021;-71
2023/06/28 05:26:51;;;;;;;3.78;1.00;;;22.10;44.00;;;;;;2504958;55;20956;-71
2023/06/28 05:29:23;;;;;;;1.75;0.70;;;22.10;44.00;;;;;;2512410;55;20990;-71
2023/06/28 05:31:51;;;;;;;2.97;0.70;;;22.10;44.20;;;;;;2281819;56;21037;-70
2023/06/28 05:34:23;;;;;;;2.95;0.90;;;22.10;44.10;;;;;;2512055;54;21895;-68
2023/06/28 05:36:49;;;;;;;4.85;0.88;;;22.10;44.10;;;;;;2518703;54;21029;-70
2023/06/28 05:39:15;;;;;;;2.42;0.70;;;22.10;44.20;;;;;;2511306;55;20918;-72
2023/06/28 05:41:42;;;;;;;3.12;0.90;;;22.10;44.20;;;;;;2489397;55;21433;-71
2023/06/28 05:44:08;;;;;;;1.52;0.68;;;22.10;44.30;;;;;;2299817;55;20964;-71
2023/06/28 05:46:38;;;;;;;2.37;0.95;;;22.10;44.40;;;;;;2541426;54;20954;-69
2023/06/28 05:49:08;;;;;;;2.08;0.80;;;22.10;44.50;;;;;;2277534;56;20996;-71
2023/06/28 05:51:36;;;;;;;2.07;0.83;;;22.20;44.70;;;;;;2532607;54;20924;-71
2023/06/28 05:54:04;;;;;;;2.35;0.88;;;22.20;44.60;;;;;;2523640;54;20930;-70
2023/06/28 05:56:30;;;;;;;2.80;1.08;;;22.20;44.80;;;;;;2514716;55;20935;-70
2023/06/28 05:58:58;;;;;;;2.00;0.80;;;22.20;44.90;;;;;;2282621;56;20974;-70
2023/06/28 06:01:25;;;;;;;2.30;1.00;;;22.20;44.90;;;;;;2301797;55;21051;-72
2023/06/28 06:03:51;;;;;;;2.10;1.00;;;22.20;44.90;;;;;;2477290;55;20971;-71
2023/06/28 06:06:20;;;;;;;2.92;0.90;;;22.20;44.90;;;;;;2500344;54;21014;-72
2023/06/28 06:08:47;;;;;;;2.10;0.90;;;22.30;45.20;;;;;;2513160;55;20979;-71
2023/06/28 06:11:13;;;;;;;3.10;0.70;;;22.30;45.20;;;;;;2514305;55;21360;-72
2023/06/28 06:13:42;;;;;;;3.00;1.05;;;22.30;45.20;;;;;;2281719;55;20974;-71
2023/06/28 06:16:08;;;;;;;3.22;1.20;;;22.40;45.40;;;;;;2508738;55;20978;-69
2023/06/28 06:18:39;;;;;;;3.42;1.20;;;22.40;45.50;;;;;;2282454;55;21004;-73
2023/06/28 06:21:07;;;;;;;3.47;1.20;;;22.40;45.40;;;;;;2515568;55;21063;-71
2023/06/28 06:23:34;;;;;;;2.37;0.93;;;22.40;45.50;;;;;;2506430;54;20938;-68
2023/06/28 06:26:04;;;;;;;3.05;1.20;;;22.40;45.50;;;;;;2282651;56;20989;-69
2023/06/28 06:28:30;;;;;;;2.97;1.20;;;22.50;45.50;;;;;;2300520;55;20999;-71
2023/06/28 06:31:21;;;;;;;4.18;1.35;;;22.50;45.60;;;;;;2538582;54;21787;-72
2023/06/28 06:33:47;;;;;;;2.53;0.98;;;22.50;45.70;;;;;;2502345;55;20946;-71
2023/06/28 06:36:14;;;;;;;1.83;0.80;;;22.50;45.40;;;;;;2516489;55;20907;-70
2023/06/28 06:38:42;;;;;;;3.97;0.95;;;22.50;45.30;;;;;;2534950;54;21728;-70
2023/06/28 06:41:10;;;;;;;3.40;1.23;;;22.60;45.50;;;;;;2309025;55;21010;-70
2023/06/28 06:43:36;;;;;;;4.80;1.08;;;22.60;45.60;;;;;;2308588;55;21027;-73
2023/06/28 06:46:03;;;;;;;2.70;1.25;;;22.70;45.60;;;;;;2281556;57;21480;-71
2023/06/28 06:48:29;;;;;;;2.10;0.82;;;22.70;45.50;;;;;;2253730;57;21017;-70
2023/06/28 06:50:55;;;;;;;3.45;1.02;;;22.70;45.40;;;;;;2515688;55;20930;-69
2023/06/28 06:53:22;;;;;;;3.10;1.00;;;22.70;45.40;;;;;;2515065;55;20950;-71
2023/06/28 06:57:07;;;;;;;2.72;0.85;;;22.80;45.40;;;;;;2509949;55;21011;-71
2023/06/28 06:59:33;;;;;;;3.62;1.08;;;22.80;45.40;;;;;;2281943;56;20966;-70
2023/06/28 07:02:00;;;;;;;3.70;0.95;;;22.90;45.10;;;;;;2505211;55;20950;-72
2023/06/28 07:04:27;;;;;;;2.80;0.93;;;22.90;45.10;;;;;;2510650;55;21035;-70
2023/06/28 07:06:56;;;;;;;3.15;1.20;;;23.00;45.00;;;;;;2281593;56;20958;-70
2023/06/28 07:09:26;;;;;;;4.30;1.00;;;23.00;45.10;;;;;;2278579;56;21005;-69
2023/06/28 07:12:11;;;;;;;2.55;1.08;;;23.00;45.50;;;;;;2292981;55;21039;-72
2023/06/28 07:14:37;;;;;;;2.78;0.90;;;23.10;45.00;;;;;;2282730;56;21385;-68
2023/06/28 07:17:04;;;;;;;2.67;0.90;;;23.10;44.80;;;;;;2508265;54;21934;-69
2023/06/28 07:19:30;;;;;;;2.72;1.12;;;23.10;44.70;;;;;;2283281;55;20974;-70
2023/06/28 07:21:57;;;;;;;3.15;1.10;;;23.20;44.70;;;;;;2516360;54;21640;-69
2023/06/28 07:24:24;;;;;;;2.72;1.10;;;23.20;44.70;;;;;;2516297;54;20970;-70
2023/06/28 07:26:50;;;;;;;3.65;1.25;;;23.20;44.70;;;;;;2282138;56;21097;-69
2023/06/28 07:29:24;;;;;;;2.12;0.95;;;23.20;44.60;;;;;;2528663;54;21286;-72
2023/06/28 07:31:51;;;;;;;2.50;0.80;;;23.30;44.70;;;;;;2533625;54;21003;-72
2023/06/28 07:34:18;;;;;;;3.33;1.30;;;23.30;44.70;;;;;;2516422;54;21702;-72
2023/06/28 07:36:44;;;;;;;3.08;1.20;;;23.40;44.80;;;;;;2512306;55;21049;-70
2023/06/28 07:39:16;;;;;;;3.62;1.20;;;23.40;44.70;;;;;;2516313;55;21054;-70
2023/06/28 07:41:42;;;;;;;2.78;1.27;;;23.40;44.70;;;;;;2521127;54;20977;-70
2023/06/28 07:44:09;;;;;;;3.22;1.17;;;23.50;44.70;;;;;;2529542;54;21110;-72
2023/06/28 07:46:35;;;;;;;2.65;1.10;;;23.50;44.80;;;;;;2542017;54;20956;-70
2023/06/28 07:49:02;;;;;;;2.78;1.40;;;23.60;44.90;;;;;;2511725;55;20946;-71
2023/06/28 07:51:28;;;;;;;7.50;1.20;;;23.60;44.90;;;;;;2514878;55;21006;-69
2023/06/28 07:53:59;;;;;;;3.15;1.30;;;23.70;45.00;;;;;;2503980;55;22247;-69
2023/06/28 07:56:27;;;;;;;;;;;23.80;45.00;;;;;;2258047;55;21844;-70
2023/06/28 07:58:53;;;;;;;2.70;1.10;;;23.70;44.80;;;;;;2299795;55;20100;-69
2023/06/28 08:01:20;;;;;;;3.33;1.27;;;23.90;44.90;;;;;;2282276;56;21002;-70
2023/06/28 08:03:47;;;;;;;3.83;1.15;;;24.00;45.00;;;;;;2282295;56;20951;-71
2023/06/28 08:06:13;;;;;;;2.75;1.10;;;24.10;45.00;;;;;;2287883;55;21034;-70
2023/06/28 08:08:47;;;;;;;3.35;1.25;;;24.20;45.10;;;;;;2516200;54;21015;-68
2023/06/28 08:11:28;;;;;;;2.17;0.88;;;24.20;45.10;;;;;;2509380;54;21034;-71
2023/06/28 08:13:55;;;;;;;1.50;0.70;;;24.40;45.00;;;;;;2503418;55;21512;-68
2023/06/28 08:19:49;;;;;;;2.35;0.90;;;24.60;44.90;;;;;;2515961;55;21012;-69
2023/06/28 08:22:25;;;;;;;2.70;0.90;;;24.60;44.70;;;;;;2516277;55;21914;-70
2023/06/28 08:24:51;;;;;;;3.28;1.10;;;24.70;44.60;;;;;;2513759;54;21491;-68
2023/06/28 08:27:17;;;;;;;3.12;1.08;;;24.80;44.60;;;;;;2298761;55;20936;-70
2023/06/28 08:29:44;;;;;;;3.78;1.35;;;24.80;44.40;;;;;;2280433;55;21739;-70
2023/06/28 08:32:11;;;;;;;2.42;0.95;;;24.90;44.50;;;;;;2283438;55;20979;-70
2023/06/28 08:34:40;;;;;;;2.90;1.08;;;24.90;44.30;;;;;;2279350;55;21007;-69
2023/06/28 08:37:08;;;;;;;2.45;0.90;;;25.00;44.20;;;;;;2255414;55;1855815;-70
2023/06/28 08:39:36;;;;;;;2.75;1.10;;;25.10;44.10;;;;;;2513162;55;21008;-72
2023/06/28 08:42:11;;;;;;;2.47;0.90;;;25.10;44.00;;;;;;2510414;55;21494;-70
2023/06/28 08:44:38;;;;;;;2.55;0.90;;;25.20;44.00;;;;;;2506515;55;20970;-71
2023/06/28 08:47:05;;;;;;;2.45;1.00;;;25.20;44.00;;;;;;2306531;55;20968;-70
2023/06/28 08:49:36;;;;;;;3.28;0.93;;;25.20;43.90;;;;;;2519120;54;20990;-70
2023/06/28 08:52:30;;;;;;;2.85;1.00;;;25.30;43.80;;;;;;2276930;55;20972;-71
2023/06/28 08:55:08;;;;;;;2.47;1.10;;;25.40;43.70;;;;;;2282302;55;20984;-70
2023/06/28 08:57:35;;;;;;;2.22;0.77;;;25.40;43.50;;;;;;2282690;55;20979;-67
2023/06/28 09:00:03;;;;;;;4.50;1.00;;;25.50;43.60;;;;;;2514180;55;21404;-69
2023/06/28 09:02:30;;;;;;;2.83;1.00;;;25.50;43.50;;;;;;2287880;55;21009;-71
2023/06/28 09:04:57;;;;;;;3.50;0.98;;;25.50;43.40;;;;;;2504369;54;21018;-69
2023/06/28 09:07:23;;;;;;;2.12;0.80;;;25.60;43.40;;;;;;2516078;55;20974;-69
2023/06/28 09:10:17;;;;;;;3.55;1.05;;;25.60;43.30;;;;;;2509875;55;21586;-70
2023/06/28 09:12:47;;;;;;;2.72;1.10;;;25.70;43.10;;;;;;2282329;55;20986;-69
2023/06/28 09:15:20;;;;;;;2.58;1.08;;;25.70;43.20;;;;;;2515377;55;20970;-67
2023/06/28 09:17:58;;;;;;;2.50;0.90;;;25.80;43.10;;;;;;2514660;55;21440;-68
2023/06/28 09:20:26;;;;;;;2.40;0.88;;;25.80;43.10;;;;;;2542714;54;21445;-69
2023/06/28 09:22:57;;;;;;;5.50;1.02;;;25.90;43.00;;;;;;2539867;54;20979;-69
2023/06/28 09:25:24;;;;;;;2.40;1.08;;;25.90;42.80;;;;;;2531083;54;21388;-69
2023/06/28 09:27:51;;;;;;;2.83;1.12;;;26.00;42.90;;;;;;2553345;54;20972;-68
2023/06/28 09:30:21;;;;;;;3.15;1.10;;;26.00;42.80;;;;;;2554314;54;20936;-69
2023/06/28 09:32:51;;;;;;;2.53;0.95;;;26.10;42.60;;;;;;2553413;54;21775;-69
2023/06/28 09:35:17;;;;;;;3.00;1.10;;;26.10;42.60;;;;;;2314669;55;21006;-69
2023/06/28 09:37:50;;;;;;;2.70;1.35;;;26.20;42.80;;;;;;2553349;54;20936;-70
2023/06/28 09:40:17;;;;;;;4.35;1.23;;;26.20;42.50;;;;;;2550521;54;21004;-69
2023/06/28 09:42:47;;;;;;;4.18;1.10;;;26.30;42.50;;;;;;2546903;54;20964;-69
2023/06/28 09:45:36;;;;;;;2.72;1.10;;;26.30;42.30;;;;;;2554561;54;20944;-70
2023/06/28 09:48:05;;;;;;;2.33;0.80;;;26.40;42.20;;;;;;2306677;55;20972;-69
2023/06/28 09:50:44;;;;;;;2.53;1.10;;;26.40;42.20;;;;;;2547549;54;20971;-68
2023/06/28 09:53:23;;;;;;;3.90;1.37;;;26.50;42.00;;;;;;2310753;55;21051;-69
2023/06/28 09:55:50;;;;;;;3.80;1.00;;;26.50;41.60;;;;;;2313505;55;21870;-70
2023/06/28 09:58:18;;;;;;;5.80;1.02;;;26.60;41.80;;;;;;2554482;54;20987;-68
2023/06/28 10:00:47;;;;;;;2.72;0.80;;;26.60;41.40;;;;;;2553693;54;21711;-69
2023/06/28 10:03:15;;;;;;;4.15;1.02;;;26.60;41.10;;;;;;2305735;55;20997;-68
2023/06/28 10:09:16;;;;;;;2.83;0.73;;;26.70;40.50;;;;;;2545888;54;20944;-68
2023/06/28 10:11:45;;;;;;;2.08;0.73;;;26.70;40.90;;;;;;2294512;56;20940;-70
2023/06/28 10:14:12;;;;;;;3.28;1.02;;;26.80;40.90;;;;;;2308190;55;21051;-68
2023/06/28 10:16:40;;;;;;;2.25;0.90;;;26.80;40.80;;;;;;2313080;55;20928;-68
2023/06/28 10:19:21;;;;;;;2.53;0.98;;;26.70;40.30;;;;;;2553740;54;20931;-69
2023/06/28 10:21:50;;;;;;;2.53;0.80;;;26.90;40.10;;;;;;2546911;54;21035;-68
2023/06/28 10:24:16;;;;;;;2.42;0.82;;;26.90;40.20;;;;;;2554149;54;20999;-69
2023/06/28 10:26:45;;;;;;;1.77;0.65;;;27.00;40.20;;;;;;2546559;54;20968;-69
2023/06/28 10:29:14;;;;;;;2.42;0.80;;;27.00;40.10;;;;;;2551125;54;21133;-70
2023/06/28 10:31:41;;;;;;;3.30;1.05;;;27.00;40.00;;;;;;2302221;55;21724;-70
2023/06/28 10:34:08;;;;;;;3.20;0.82;;;27.10;40.10;;;;;;2515774;55;20938;-68
2023/06/28 10:36:34;;;;;;;2.37;0.90;;;27.20;40.10;;;;;;2523130;54;21431;-69
2023/06/28 10:39:01;;;;;;;2.72;0.90;;;27.20;40.00;;;;;;2546494;54;21007;-71
2023/06/28 10:41:28;;;;;;;1.70;0.75;;;27.30;40.10;;;;;;2554432;54;21456;-71
2023/06/28 10:44:06;;;;;;;2.42;0.85;;;27.30;39.60;;;;;;2552823;54;21011;-71
2023/06/28 10:46:33;;;;;;;2.53;0.80;;;27.40;39.30;;;;;;2313306;55;21471;-69
2023/06/28 10:49:00;;;;;;;2.50;0.77;;;27.50;39.30;;;;;;2553435;54;21012;-70
2023/06/28 10:51:31;;;;;;;2.65;0.90;;;27.50;39.00;;;;;;2548740;54;20968;-71
2023/06/28 10:54:12;;;;;;;2.05;0.90;;;27.60;38.90;;;;;;2553211;54;20988;-72
2023/06/28 10:56:51;;;;;;;2.72;0.80;;;27.70;38.50;;;;;;2314280;55;21059;-71
2023/06/28 10:59:18;;;;;;;2.58;0.80;;;27.80;38.30;;;;;;2554229;54;21012;-72
2023/06/28 11:01:54;;;;;;;3.00;1.12;;;27.80;38.60;;;;;;2313935;55;21035;-73
2023/06/28 11:04:24;;;;;;;2.33;0.77;;;27.90;37.90;;;;;;2314646;55;21011;-71
2023/06/28 11:08:43;;;;;;;2.78;0.90;;;27.90;38.00;;;;;;2307997;55;20995;-71
2023/06/28 11:11:21;;;;;;;2.55;0.80;;;28.00;37.70;;;;;;2554599;54;21004;-74
2023/06/28 11:13:49;;;;;;;2.42;0.95;;;28.10;37.60;;;;;;2553380;54;21003;-72
2023/06/28 11:16:22;;;;;;;2.03;0.77;;;28.10;37.50;;;;;;2314165;55;21507;-72
2023/06/28 11:18:49;;;;;;;2.95;0.93;;;28.20;37.30;;;;;;2552893;54;21011;-72
2023/06/28 11:21:26;;;;;;;2.10;0.80;;;28.20;37.20;;;;;;2554263;54;20967;-74
2023/06/28 11:23:56;;;;;;;3.03;0.90;;;28.20;37.00;;;;;;2552705;54;21769;-69
2023/06/28 11:27:23;;;;;;;2.33;0.80;;;28.30;37.00;;;;;;2315432;55;21015;-73
2023/06/28 11:29:58;;;;;;;1.55;0.60;;;28.30;36.80;;;;;;2532622;54;21458;-70
2023/06/28 11:32:28;;;;;;;2.17;0.77;;;28.40;36.90;;;;;;2305776;55;21317;-71
2023/06/28 11:34:56;;;;;;;2.72;0.80;;;28.40;36.70;;;;;;2291913;55;21004;-69
2023/06/28 11:37:24;;;;;;;3.08;0.90;;;28.40;36.80;;;;;;2306991;55;21072;-71
2023/06/28 11:39:50;;;;;;;4.07;1.08;;;28.40;36.50;;;;;;2298760;55;20998;-69
2023/06/28 11:42:17;;;;;;;3.45;1.30;;;28.50;36.40;;;;;;2554186;54;21477;-70
2023/06/28 11:44:47;;;;;;;2.60;0.80;;;28.50;36.50;;;;;;2553162;54;20968;-71
2023/06/28 11:47:16;;;;;;;2.17;0.82;;;28.50;36.10;;;;;;2554092;54;21047;-70
2023/06/28 11:49:45;;;;;;;10.82;1.20;;;28.50;36.30;;;;;;2536135;54;21052;-73
2023/06/28 11:52:12;;;;;;;3.17;0.98;;;28.60;36.50;;;;;;2539149;54;21389;-71
2023/06/28 11:54:39;;;;;;;2.30;0.80;;;28.60;36.30;;;;;;2314388;55;20940;-70
2023/06/28 11:57:06;;;;;;;6.05;1.08;;;28.60;36.30;;;;;;2314919;55;20979;-71
2023/06/28 12:03:01;;;;;;;3.37;0.80;;;28.70;35.80;;;;;;2553661;54;20980;-71
2023/06/28 12:05:30;;;;;;;2.05;0.75;;;28.80;36.10;;;;;;2313944;55;20987;-71
2023/06/28 12:07:58;;;;;;;3.60;1.00;;;28.80;36.00;;;;;;2553026;54;21026;-71
2023/06/28 12:10:35;;;;;;;1.95;0.60;;;28.80;36.00;;;;;;2554432;54;21990;-70
2023/06/28 12:13:01;;;;;;;3.42;0.70;;;28.90;36.10;;;;;;2553494;54;21073;-71
2023/06/28 12:15:30;;;;;;;3.20;0.90;;;28.80;36.20;;;;;;2316140;55;21039;-72
2023/06/28 12:17:56;;;;;;;3.70;0.85;;;29.00;36.20;;;;;;2313818;55;22522;-70
2023/06/28 12:20:23;;;;;;;3.05;0.90;;;29.00;36.10;;;;;;2314069;55;21002;-71
2023/06/28 12:22:49;;;;;;;2.78;0.90;;;29.10;36.10;;;;;;2525914;54;20995;-69
2023/06/28 12:25:27;;;;;;;3.17;0.98;;;29.10;36.10;;;;;;2314003;55;20947;-69
2023/06/28 12:28:28;;;;;;;2.75;0.93;;;29.20;35.40;;;;;;2541597;54;21924;-68
2023/06/28 12:30:57;;;;;;;3.20;0.80;;;29.20;35.20;;;;;;2304350;55;20939;-72
2023/06/28 12:33:25;;;;;;;2.22;0.82;;;29.30;35.00;;;;;;2554345;54;20999;-70
2023/06/28 12:35:51;;;;;;;2.30;0.90;;;29.30;35.10;;;;;;2552545;54;20947;-70
2023/06/28 12:38:18;;;;;;;3.53;1.12;;;29.30;35.10;;;;;;2554513;54;21644;-73
2023/06/28 12:40:46;;;;;;;4.30;2.67;;;29.30;35.00;;;;;;2313003;55;20936;-71
2023/06/28 12:43:21;;;;;;;2.87;0.80;;;29.30;35.20;;;;;;2302957;55;21048;-71
2023/06/28 12:45:50;;;;;;;3.12;0.90;;;29.40;35.30;;;;;;2538372;54;20951;-71
2023/06/28 12:48:17;;;;;;;3.35;0.90;;;29.40;35.10;;;;;;2554141;54;21420;-71
2023/06/28 12:50:45;;;;;;;2.70;1.00;;;29.40;35.20;;;;;;2552915;54;20972;-68
2023/06/28 12:53:15;;;;;;;2.58;0.93;;;29.50;35.50;;;;;;2552602;54;20963;-70
2023/06/28 12:55:42;;;;;;;2.67;0.90;;;29.60;35.30;;;;;;2312846;55;20951;-71
2023/06/28 12:58:11;;;;;;;1.70;0.68;;;29.60;35.00;;;;;;2554168;54;21034;-70
2023/06/28 13:00:42;;;;;;;2.25;0.90;;;29.70;35.00;;;;;;2554141;54;20927;-71
2023/06/28 13:03:10;;;;;;;2.12;0.77;;;29.70;35.00;;;;;;2553851;54;20936;-70
2023/06/28 13:05:37;;;;;;;2.33;0.88;;;29.70;34.80;;;;;;2553873;54;21401;-71
2023/06/28 13:08:03;;;;;;;2.15;0.80;;;29.80;34.70;;;;;;2312099;55;21832;-70
2023/06/28 13:10:30;;;;;;;2.15;0.70;;;29.80;34.50;;;;;;2552577;54;21489;-70
2023/06/28 13:12:56;;;;;;;1.73;0.73;;;29.80;35.00;;;;;;2553141;54;20995;-71
2023/06/28 13:15:24;;;;;;;2.55;0.50;;;29.90;34.50;;;;;;2525714;54;21053;-69
2023/06/28 13:17:53;;;;;;;1.73;0.90;;;29.90;34.70;;;;;;2547102;54;21004;-70
2023/06/28 13:20:20;;;;;;;2.55;0.80;;;29.90;34.70;;;;;;2553151;54;20979;-69
2023/06/28 13:22:46;;;;;;;1.40;0.60;;;30.00;34.60;;;;;;2312401;55;20983;-69